Time;durP1;ratioP1;P1;durP2;ratioP2;P2;SDS_P1;SDS_P2;PMS_P1;PMS_P2;Temp;Humidity;BMP_temperature;BMP_pressure;BME280_temperature;BME280_humidity;BME280_pressure;Samples;Min_cycle;Max_cycle;Signal;HPM_P1;HPM_P2
2021/09/14 00:05:19;;;;;;;5.10;3.80;;;22.30;99.90;;;;;;12109312;27;20193;-65
2021/09/14 08:53:19;;;;;;;14.00;8.98;;;20.20;99.90;;;;;;12062251;27;20824;-61
2021/09/14 08:59:06;;;;;;;17.10;10.18;;;20.60;99.90;;;;;;12055030;28;20085;-61
2021/09/14 09:04:58;;;;;;;17.10;10.05;;;21.40;99.90;;;;;;12054406;28;20044;-62
2021/09/14 09:10:59;;;;;;;13.88;10.60;;;21.80;99.90;;;;;;12054520;28;20053;-62
2021/09/14 09:16:46;;;;;;;19.30;11.27;;;22.10;99.90;;;;;;12061423;28;20401;-61
2021/09/14 09:22:33;;;;;;;18.63;11.57;;;22.30;99.90;;;;;;12053120;28;20056;-62
2021/09/14 09:28:24;;;;;;;18.45;10.65;;;22.70;99.90;;;;;;12055639;28;20049;-61
2021/09/14 09:34:12;;;;;;;21.45;11.30;;;22.90;99.90;;;;;;12054052;28;20045;-62
2021/09/14 09:39:59;;;;;;;17.20;9.95;;;23.00;99.90;;;;;;12053318;28;20029;-62
2021/09/14 09:45:48;;;;;;;21.27;10.95;;;22.90;99.90;;;;;;12033807;28;20067;-62
2021/09/14 09:51:36;;;;;;;15.30;9.98;;;23.00;99.90;;;;;;12040110;28;20041;-63
2021/09/14 09:57:24;;;;;;;16.95;10.35;;;23.20;99.90;;;;;;12018206;28;20049;-63
2021/09/14 10:03:17;;;;;;;14.20;8.45;;;23.30;99.90;;;;;;11978817;28;20144;-62
2021/09/14 10:09:04;;;;;;;14.45;9.77;;;23.50;99.90;;;;;;11976477;28;20041;-64
2021/09/14 10:15:03;;;;;;;24.63;10.25;;;23.70;99.90;;;;;;11989880;28;20106;-64
2021/09/14 10:20:51;;;;;;;14.32;9.98;;;23.80;99.90;;;;;;11990838;28;20063;-64
2021/09/14 10:26:40;;;;;;;14.15;9.82;;;23.90;99.90;;;;;;11988982;28;20045;-63
2021/09/14 10:32:38;;;;;;;12.43;9.43;;;24.00;99.90;;;;;;12011331;28;20436;-63
2021/09/14 10:38:27;;;;;;;16.58;10.18;;;24.10;99.90;;;;;;12018260;28;20079;-64
2021/09/14 10:44:25;;;;;;;14.65;8.50;;;24.20;99.90;;;;;;12009795;28;20060;-65
2021/09/14 10:50:25;;;;;;;11.05;7.53;;;24.30;99.90;;;;;;11987461;28;20128;-63
2021/09/14 10:56:18;;;;;;;12.85;7.40;;;24.30;99.90;;;;;;12002015;28;20049;-63
2021/09/14 11:02:08;;;;;;;15.73;6.30;;;24.50;99.90;;;;;;12012443;28;20050;-63
2021/09/14 11:07:58;;;;;;;16.73;6.88;;;24.60;99.90;;;;;;11999076;28;20045;-63
2021/09/14 11:13:46;;;;;;;12.35;6.20;;;24.50;99.90;;;;;;11991937;28;20053;-62
2021/09/14 11:19:33;;;;;;;11.93;6.10;;;24.60;99.90;;;;;;12017219;28;20064;-64
2021/09/14 11:25:22;;;;;;;11.05;5.53;;;25.00;99.90;;;;;;12018396;28;20045;-64
2021/09/14 11:31:12;;;;;;;11.15;4.93;;;25.30;99.90;;;;;;11994279;28;20045;-64
2021/09/14 11:43:12;;;;;;;10.63;5.03;;;25.40;99.90;;;;;;12010517;28;20041;-63
2021/09/14 11:49:07;;;;;;;16.23;6.00;;;25.50;99.90;;;;;;11932154;28;20128;-64
2021/09/14 12:01:00;;;;;;;10.60;4.97;;;25.70;99.90;;;;;;12018390;28;20127;-63
2021/09/14 12:06:53;;;;;;;10.45;4.60;;;25.90;99.90;;;;;;12015103;28;20048;-63
2021/09/14 12:12:42;;;;;;;7.45;4.15;;;25.70;99.90;;;;;;12015147;28;20068;-64
2021/09/14 12:18:29;;;;;;;12.48;4.85;;;25.70;99.90;;;;;;12013467;28;20187;-63
2021/09/14 12:24:17;;;;;;;8.63;4.10;;;25.90;99.90;;;;;;12013766;28;20045;-63
2021/09/14 12:30:04;;;;;;;7.68;4.55;;;25.90;99.90;;;;;;12009697;28;20043;-62
2021/09/14 12:35:52;;;;;;;8.35;4.20;;;26.10;99.90;;;;;;12015335;28;20057;-62
2021/09/14 12:41:40;;;;;;;13.27;4.40;;;26.40;99.90;;;;;;12013902;28;20041;-63
2021/09/14 12:47:31;;;;;;;11.35;4.10;;;26.60;99.90;;;;;;11986589;28;20037;-63
2021/09/14 12:53:18;;;;;;;16.08;3.97;;;26.70;99.90;;;;;;11974681;28;20128;-63
2021/09/14 12:59:06;;;;;;;7.03;3.72;;;26.30;99.90;;;;;;11979215;28;20085;-62
2021/09/14 13:04:53;;;;;;;17.65;3.95;;;26.30;99.90;;;;;;11967743;28;20057;-61
2021/09/14 13:10:40;;;;;;;8.80;3.65;;;26.40;99.90;;;;;;11985260;28;20528;-63
2021/09/14 13:16:28;;;;;;;6.75;3.70;;;26.50;99.90;;;;;;12012952;28;20059;-65
2021/09/14 13:22:17;;;;;;;10.55;3.97;;;26.70;99.90;;;;;;11987140;28;20428;-66
2021/09/14 13:28:04;;;;;;;5.65;3.67;;;26.80;99.90;;;;;;11970605;28;20048;-65
2021/09/14 13:33:54;;;;;;;9.40;3.83;;;27.00;99.90;;;;;;12009667;28;20064;-66
2021/09/14 13:39:41;;;;;;;11.23;4.10;;;27.20;99.90;;;;;;12019649;28;20056;-66
2021/09/14 13:52:26;;;;;;;7.57;3.50;;;27.00;99.90;;;;;;12021341;28;20033;-66
2021/09/14 13:58:14;;;;;;;7.90;3.47;;;27.10;99.90;;;;;;12020451;28;20566;-66
2021/09/14 14:04:01;;;;;;;7.28;3.40;;;27.30;99.90;;;;;;12019968;28;20052;-66
2021/09/14 14:09:50;;;;;;;10.45;4.03;;;27.30;99.90;;;;;;12020200;28;20049;-66
2021/09/14 14:15:37;;;;;;;13.20;3.88;;;27.10;99.90;;;;;;12019266;28;20052;-66
2021/09/14 14:21:24;;;;;;;7.70;3.88;;;26.90;99.90;;;;;;12025931;28;20071;-64
2021/09/14 14:27:17;;;;;;;8.68;4.05;;;26.80;99.90;;;;;;12019404;28;20416;-64
2021/09/14 14:33:04;;;;;;;13.55;4.95;;;26.80;99.90;;;;;;12018673;28;20052;-64
2021/09/14 14:38:51;;;;;;;8.15;3.53;;;26.90;99.90;;;;;;12019110;28;20053;-64
2021/09/14 14:44:39;;;;;;;7.22;3.67;;;27.10;99.90;;;;;;12007469;28;20053;-65
2021/09/14 14:50:27;;;;;;;9.13;4.18;;;27.10;99.90;;;;;;11986353;28;20037;-65
2021/09/14 14:56:14;;;;;;;13.90;4.38;;;26.90;99.90;;;;;;11987062;28;20060;-65
2021/09/14 15:02:03;;;;;;;5.70;3.72;;;26.80;99.90;;;;;;11985314;28;20041;-64
2021/09/14 15:07:50;;;;;;;9.40;4.18;;;26.70;99.90;;;;;;12017654;28;20044;-64
2021/09/14 15:13:37;;;;;;;8.20;4.57;;;26.70;99.90;;;;;;12023127;28;20048;-65
2021/09/14 15:19:25;;;;;;;7.40;3.80;;;26.70;99.90;;;;;;12017644;28;20505;-66
2021/09/14 15:25:12;;;;;;;10.73;4.20;;;26.60;99.90;;;;;;12018328;28;20048;-66
2021/09/14 15:30:59;;;;;;;6.60;3.60;;;26.30;99.90;;;;;;11994774;28;20398;-66
2021/09/14 15:36:48;;;;;;;7.70;3.45;;;26.30;99.90;;;;;;11969120;28;20186;-66
2021/09/14 15:42:35;;;;;;;9.82;4.18;;;26.40;99.90;;;;;;12012246;28;20041;-66
2021/09/14 15:48:23;;;;;;;7.90;4.60;;;26.40;99.90;;;;;;11932271;28;20056;-65
2021/09/14 15:54:13;;;;;;;10.98;4.55;;;26.40;99.90;;;;;;11979668;28;20057;-65
2021/09/14 16:00:00;;;;;;;10.25;4.00;;;26.30;99.90;;;;;;11981433;28;20040;-65
2021/09/14 16:05:47;;;;;;;9.93;4.38;;;26.10;99.90;;;;;;11982561;28;20064;-65
2021/09/14 16:11:36;;;;;;;10.73;4.38;;;26.00;99.90;;;;;;11986875;28;20049;-65
2021/09/14 16:17:23;;;;;;;8.40;4.93;;;25.80;99.90;;;;;;11979438;28;20070;-64
2021/09/14 16:23:10;;;;;;;5.80;4.70;;;25.70;99.90;;;;;;11977733;28;20064;-64
2021/09/14 16:28:58;;;;;;;10.35;4.70;;;25.70;99.90;;;;;;11962532;28;20132;-64
2021/09/14 16:34:45;;;;;;;13.05;5.70;;;25.60;99.90;;;;;;11961244;28;20063;-64
2021/09/14 16:40:33;;;;;;;10.07;5.70;;;25.50;99.90;;;;;;11971257;28;20045;-65
2021/09/14 16:46:21;;;;;;;14.90;5.75;;;25.40;99.90;;;;;;11979088;28;20056;-65
2021/09/14 16:52:08;;;;;;;15.70;5.88;;;25.30;99.90;;;;;;11974797;28;20077;-65
2021/09/14 16:57:55;;;;;;;10.00;5.32;;;25.20;99.90;;;;;;11965857;28;21130;-64
2021/09/14 17:03:43;;;;;;;13.57;6.85;;;25.10;99.90;;;;;;11966743;28;20133;-65
2021/09/14 17:09:30;;;;;;;15.23;6.55;;;25.00;99.90;;;;;;11974517;28;20517;-65
2021/09/14 17:15:17;;;;;;;21.85;7.40;;;24.90;99.90;;;;;;11993795;28;20428;-65
2021/09/14 17:21:07;;;;;;;18.48;8.40;;;24.90;99.90;;;;;;11987901;28;20080;-64
2021/09/14 17:26:58;;;;;;;20.38;8.25;;;24.80;99.90;;;;;;11970826;28;20452;-63
2021/09/14 17:38:46;;;;;;;18.13;9.18;;;24.70;99.90;;;;;;11985828;28;20108;-64
2021/09/14 17:44:34;;;;;;;18.08;9.20;;;24.60;99.90;;;;;;11945098;28;20530;-64
2021/09/14 17:56:25;;;;;;;18.17;9.63;;;24.60;99.90;;;;;;11973896;28;20041;-64
2021/09/14 18:08:15;;;;;;;21.23;9.53;;;24.60;99.90;;;;;;11986145;28;20064;-63
2021/09/14 18:14:18;;;;;;;20.58;9.88;;;24.50;99.90;;;;;;11983107;28;20272;-63
2021/09/14 18:20:06;;;;;;;;;;;24.50;99.90;;;;;;11986576;28;20429;-64
2021/09/14 18:25:52;;;;;;;17.85;11.88;;;24.50;99.90;;;;;;11980910;28;19936;-64
2021/09/14 18:31:41;;;;;;;23.67;11.70;;;24.50;99.90;;;;;;11983354;28;20449;-64
2021/09/14 18:37:30;;;;;;;17.13;11.30;;;24.50;99.90;;;;;;11911658;28;20049;-64
2021/09/14 18:43:16;;;;;;;17.30;11.10;;;24.40;99.90;;;;;;11980640;28;20049;-64
2021/09/14 18:49:05;;;;;;;17.33;10.43;;;24.40;99.90;;;;;;11964239;28;20045;-64
2021/09/14 18:54:52;;;;;;;16.77;9.85;;;24.40;99.90;;;;;;11980952;28;20045;-63
2021/09/14 19:00:39;;;;;;;17.20;10.65;;;24.30;99.90;;;;;;11984094;28;20064;-65
2021/09/14 19:06:50;;;;;;;17.17;10.15;;;24.20;99.90;;;;;;11984890;28;20045;-68
2021/09/14 19:12:37;;;;;;;18.42;10.25;;;24.10;99.90;;;;;;11981039;28;20141;-64
2021/09/14 19:18:25;;;;;;;22.63;11.88;;;24.20;99.90;;;;;;11981907;28;20060;-62
2021/09/14 19:24:13;;;;;;;17.73;10.13;;;24.10;99.90;;;;;;11976100;28;20747;-62
2021/09/14 19:30:00;;;;;;;20.63;11.32;;;24.10;99.90;;;;;;11945061;28;20049;-63
2021/09/14 19:35:47;;;;;;;18.48;11.15;;;24.10;99.90;;;;;;11973105;28;21132;-63
2021/09/14 19:41:36;;;;;;;18.27;11.48;;;24.10;99.90;;;;;;11977325;28;20060;-63
2021/09/14 19:47:23;;;;;;;23.58;12.88;;;24.00;99.90;;;;;;11966508;28;20045;-63
2021/09/14 19:53:09;;;;;;;21.13;11.48;;;24.00;99.90;;;;;;11983932;28;20049;-63
2021/09/14 19:58:58;;;;;;;22.75;11.63;;;24.00;99.90;;;;;;11971858;28;20052;-63
2021/09/14 20:04:44;;;;;;;22.75;12.23;;;24.00;99.90;;;;;;11931125;28;20422;-63
2021/09/14 20:10:31;;;;;;;14.20;10.00;;;24.00;99.90;;;;;;11957076;28;20045;-63
2021/09/14 20:16:21;;;;;;;16.38;10.50;;;23.90;99.90;;;;;;11958632;28;20052;-63
2021/09/14 20:22:08;;;;;;;21.88;12.13;;;24.00;99.90;;;;;;11996112;28;20485;-64
2021/09/14 20:27:55;;;;;;;23.52;11.68;;;24.00;99.90;;;;;;11992096;28;20041;-63
2021/09/14 20:33:45;;;;;;;17.52;10.40;;;23.90;99.90;;;;;;12009195;28;20102;-64
2021/09/14 20:39:32;;;;;;;21.65;10.95;;;23.90;99.90;;;;;;11995645;28;20056;-64
2021/09/14 20:45:20;;;;;;;25.23;16.40;;;23.90;99.90;;;;;;11978222;28;20053;-63
2021/09/14 20:51:08;;;;;;;16.52;10.43;;;23.90;99.90;;;;;;11992382;28;20045;-64
2021/09/14 20:56:55;;;;;;;24.80;10.35;;;23.90;99.90;;;;;;11967011;28;20576;-63
2021/09/14 21:02:43;;;;;;;25.95;10.65;;;23.90;99.90;;;;;;11996980;28;20037;-63
